createdAt,value
2019-04-07T00:02:25.669Z,8.29
2019-04-07T00:04:55.774Z,8.38
2019-04-07T00:07:27.484Z,8.16
2019-04-07T00:09:57.540Z,8.11
2019-04-07T00:12:27.729Z,8.05
2019-04-07T00:14:57.810Z,7.96
2019-04-07T00:17:27.530Z,7.96
2019-04-07T00:19:57.001Z,7.97
2019-04-07T00:22:27.001Z,7.98
2019-04-07T00:24:56.469Z,8.01
2019-04-07T00:27:26.025Z,8.02
2019-04-07T00:29:55.591Z,7.91
2019-04-07T00:32:25.077Z,7.78
2019-04-07T00:34:55.270Z,7.75
2019-04-07T00:37:24.920Z,7.68
2019-04-07T00:39:54.557Z,7.63
2019-04-07T00:42:24.768Z,7.64
2019-04-07T00:44:55.604Z,7.65
2019-04-07T00:47:25.167Z,7.59
2019-04-07T00:49:54.611Z,7.51
2019-04-07T00:52:24.857Z,7.39
2019-04-07T00:54:54.605Z,7.34
2019-04-07T00:57:24.124Z,7.24
2019-04-07T00:59:54.060Z,7.13
2019-04-07T01:02:24.426Z,7.16
2019-04-07T01:04:54.214Z,7.04
2019-04-07T01:07:24.536Z,6.95
2019-04-07T01:09:54.237Z,6.90
2019-04-07T01:12:24.758Z,6.88
2019-04-07T01:14:54.523Z,6.88
2019-04-07T01:17:24.405Z,6.82
2019-04-07T01:19:54.946Z,6.76
2019-04-07T01:22:24.549Z,6.75
2019-04-07T01:24:54.057Z,6.70
2019-04-07T01:27:24.640Z,6.77
2019-04-07T01:29:54.486Z,6.73
2019-04-07T01:32:24.099Z,6.67
2019-04-07T01:34:53.519Z,6.65
2019-04-07T01:37:23.238Z,6.60
2019-04-07T01:39:53.738Z,6.51
2019-04-07T01:42:36.737Z,6.51
2019-04-07T01:45:34.527Z,6.55
2019-04-07T01:48:26.808Z,6.48
2019-04-07T01:51:11.879Z,6.44
2019-04-07T01:53:58.921Z,6.34
2019-04-07T01:56:43.953Z,6.46
2019-04-07T01:59:33.478Z,6.42
2019-04-07T02:02:34.112Z,6.46
2019-04-07T02:05:10.847Z,6.48
2019-04-07T02:08:02.057Z,6.44
2019-04-07T02:10:46.979Z,6.44
2019-04-07T02:13:38.254Z,6.38
2019-04-07T02:16:42.035Z,6.39
2019-04-07T02:19:37.140Z,6.32
2019-04-07T02:25:39.422Z,6.29
2019-04-07T02:28:30.829Z,6.34
2019-04-07T02:31:38.204Z,6.24
2019-04-07T02:34:36.032Z,6.26
2019-04-07T02:37:27.888Z,6.19
2019-04-07T02:40:11.811Z,6.12
2019-04-07T02:42:49.149Z,6.14
2019-04-07T02:45:43.249Z,6.07
2019-04-07T02:48:20.365Z,6.04
2019-04-07T02:51:09.618Z,6.11
2019-04-07T02:54:09.848Z,6.11
2019-04-07T02:56:48.633Z,6.19
2019-04-07T02:59:46.408Z,6.13
2019-04-07T03:02:25.042Z,6.10
2019-04-07T03:05:13.809Z,6.07
2019-04-07T03:08:05.744Z,5.99
2019-04-07T03:10:53.453Z,5.86
2019-04-07T03:13:49.027Z,5.78
2019-04-07T03:16:32.332Z,5.82
2019-04-07T03:19:13.158Z,5.93
2019-04-07T03:21:56.045Z,5.94
2019-04-07T03:24:38.483Z,5.88
2019-04-07T03:27:38.817Z,5.89
2019-04-07T03:30:28.390Z,5.81
2019-04-07T03:33:27.253Z,5.74
2019-04-07T03:36:05.606Z,5.76
2019-04-07T03:38:53.734Z,5.84
2019-04-07T03:41:35.093Z,5.75
2019-04-07T03:44:24.339Z,5.74
2019-04-07T03:47:12.891Z,5.75
2019-04-07T03:50:07.214Z,5.82
2019-04-07T03:52:54.457Z,5.73
2019-04-07T03:55:38.528Z,5.78
2019-04-07T03:58:26.000Z,5.74
2019-04-07T04:01:33.306Z,5.72
2019-04-07T04:04:24.353Z,5.66
2019-04-07T04:06:56.959Z,5.61
2019-04-07T04:09:48.027Z,5.61
2019-04-07T04:12:30.150Z,5.60
2019-04-07T04:15:15.505Z,5.61
2019-04-07T04:17:45.711Z,5.71
2019-04-07T04:20:16.110Z,5.63
2019-04-07T04:22:46.418Z,5.66
2019-04-07T04:25:17.102Z,5.66
2019-04-07T04:27:46.741Z,5.63
2019-04-07T04:30:16.909Z,5.67
2019-04-07T04:32:46.452Z,5.66
2019-04-07T04:35:16.927Z,5.72
2019-04-07T04:37:51.439Z,5.63
2019-04-07T04:40:17.848Z,5.72
2019-04-07T04:42:47.300Z,5.69
2019-04-07T04:45:16.666Z,5.67
2019-04-07T04:47:46.409Z,5.60
2019-04-07T04:50:16.813Z,5.76
2019-04-07T04:52:46.978Z,5.85
2019-04-07T04:55:16.692Z,6.01
2019-04-07T04:57:46.423Z,6.09
2019-04-07T05:00:15.987Z,6.01
2019-04-07T05:02:45.709Z,6.03
2019-04-07T05:05:15.277Z,6.24
2019-04-07T05:07:55.228Z,6.15
2019-04-07T05:10:16.974Z,6.21
2019-04-07T05:12:47.181Z,6.04
2019-04-07T05:15:17.445Z,5.91
2019-04-07T05:17:47.175Z,6.01
2019-04-07T05:20:17.287Z,6.10
2019-04-07T05:22:47.547Z,6.36
2019-04-07T05:25:17.376Z,6.76
2019-04-07T05:27:46.944Z,7.01
2019-04-07T05:30:16.831Z,7.16
2019-04-07T05:32:46.918Z,7.38
2019-04-07T05:35:16.410Z,7.55
2019-04-07T05:37:45.959Z,7.67
2019-04-07T05:40:15.509Z,7.70
2019-04-07T05:42:45.473Z,7.89
2019-04-07T05:45:15.073Z,7.88
2019-04-07T05:47:49.731Z,7.99
2019-04-07T05:50:15.702Z,8.17
2019-04-07T05:52:45.187Z,8.16
2019-04-07T05:55:15.191Z,8.14
2019-04-07T05:57:45.373Z,8.35
2019-04-07T06:00:16.647Z,8.41
2019-04-07T06:02:47.102Z,8.39
2019-04-07T06:05:18.399Z,8.57
2019-04-07T06:07:48.018Z,9.10
2019-04-07T06:10:18.182Z,10.07
2019-04-07T06:12:48.287Z,11.69
2019-04-07T06:15:22.045Z,12.61
2019-04-07T06:17:50.095Z,13.91
2019-04-07T06:20:19.697Z,14.56
2019-04-07T06:22:52.754Z,15.44
2019-04-07T06:25:20.870Z,15.81
2019-04-07T06:27:51.044Z,16.23
2019-04-07T06:30:22.265Z,16.93
2019-04-07T06:32:51.680Z,17.55
2019-04-07T06:35:21.076Z,17.88
2019-04-07T06:37:50.837Z,17.94
2019-04-07T06:40:21.976Z,18.04
2019-04-07T06:42:51.502Z,18.95
2019-04-07T06:45:24.617Z,18.95
2019-04-07T06:47:56.718Z,19.37
2019-04-07T06:50:47.686Z,19.70
2019-04-07T06:53:18.893Z,20.66
2019-04-07T06:56:00.108Z,21.33
2019-04-07T06:58:56.236Z,22.06
2019-04-07T07:01:56.657Z,21.80
2019-04-07T07:04:49.745Z,23.68
2019-04-07T07:07:38.894Z,23.37
2019-04-07T07:10:37.791Z,23.67
2019-04-07T07:13:30.787Z,23.10
2019-04-07T07:15:58.856Z,23.93
2019-04-07T07:18:42.663Z,24.50
2019-04-07T07:21:24.994Z,23.09
2019-04-07T07:23:54.432Z,24.99
2019-04-07T07:26:24.482Z,23.62
2019-04-07T07:28:54.315Z,24.46
2019-04-07T07:31:25.470Z,24.68
2019-04-07T07:33:55.022Z,23.88
2019-04-07T07:36:24.403Z,24.65
2019-04-07T07:38:59.002Z,23.71
2019-04-07T07:41:25.384Z,23.75
2019-04-07T07:43:54.911Z,23.77
2019-04-07T07:46:24.543Z,25.43
2019-04-07T07:49:08.926Z,25.03
2019-04-07T07:51:39.587Z,24.30
2019-04-07T07:54:09.944Z,26.06
2019-04-07T07:56:43.263Z,26.05
2019-04-07T07:59:26.120Z,26.45
2019-04-07T08:01:55.710Z,25.83
2019-04-07T08:04:26.730Z,24.73
2019-04-07T08:06:56.958Z,25.36
2019-04-07T08:09:35.872Z,26.28
2019-04-07T08:12:05.551Z,26.53
2019-04-07T08:14:36.059Z,26.47
2019-04-07T08:17:05.503Z,26.69
2019-04-07T08:19:34.811Z,26.52
2019-04-07T08:22:05.631Z,27.39
2019-04-07T08:24:36.207Z,27.70
2019-04-07T08:27:06.384Z,27.82
2019-04-07T08:29:37.904Z,26.73
2019-04-07T08:32:07.708Z,27.86
2019-04-07T08:34:37.317Z,27.65
2019-04-07T08:37:06.707Z,26.29
2019-04-07T08:39:36.556Z,26.06
2019-04-07T08:42:10.663Z,28.14
2019-04-07T08:44:38.022Z,27.49
2019-04-07T08:47:11.427Z,26.74
2019-04-07T08:49:38.515Z,28.01
2019-04-07T08:52:10.252Z,29.54
2019-04-07T08:54:39.093Z,29.49
2019-04-07T08:57:08.594Z,30.00
2019-04-07T08:59:42.417Z,29.35
2019-04-07T09:02:09.067Z,29.75
2019-04-07T09:04:38.375Z,29.49
2019-04-07T09:07:08.026Z,28.18
2019-04-07T09:09:44.801Z,28.38
2019-04-07T09:12:09.280Z,28.58
2019-04-07T09:14:40.735Z,28.05
2019-04-07T09:17:37.373Z,29.05
2019-04-07T09:20:29.181Z,30.52
2019-04-07T09:23:11.354Z,29.62
2019-04-07T09:25:58.405Z,29.94
2019-04-07T09:28:34.258Z,30.48
2019-04-07T09:31:23.292Z,29.09
2019-04-07T09:34:20.649Z,29.32
2019-04-07T09:37:13.866Z,29.79
2019-04-07T09:40:05.753Z,30.45
2019-04-07T09:42:57.392Z,31.16
2019-04-07T09:46:12.543Z,29.62
2019-04-07T09:49:03.810Z,30.52
2019-04-07T09:51:41.501Z,30.96
2019-04-07T09:54:29.214Z,31.07
2019-04-07T09:57:21.192Z,29.64
2019-04-07T10:00:09.764Z,29.54
2019-04-07T10:02:56.483Z,28.89
2019-04-07T10:05:47.763Z,29.83
2019-04-07T10:08:45.537Z,30.17
2019-04-07T10:11:37.406Z,31.45
2019-04-07T10:14:21.859Z,31.14
2019-04-07T10:17:16.545Z,31.72
2019-04-07T10:20:05.143Z,31.50
2019-04-07T10:22:44.097Z,32.25
2019-04-07T10:25:31.601Z,31.15
2019-04-07T10:28:20.665Z,31.30
2019-04-07T10:31:12.555Z,31.57
2019-04-07T10:34:03.929Z,32.80
2019-04-07T10:36:52.261Z,32.86
2019-04-07T10:39:30.686Z,30.97
2019-04-07T10:42:18.041Z,32.77
2019-04-07T10:45:18.509Z,32.17
2019-04-07T10:48:01.370Z,31.93
2019-04-07T10:50:55.549Z,31.96
2019-04-07T10:53:39.435Z,32.94
2019-04-07T10:56:32.047Z,32.06
2019-04-07T10:59:10.524Z,32.39
2019-04-07T11:01:57.877Z,31.62
2019-04-07T11:04:45.107Z,32.76
2019-04-07T11:07:32.782Z,32.51
2019-04-07T11:10:32.580Z,34.32
2019-04-07T11:13:06.626Z,33.03
2019-04-07T11:15:48.734Z,35.84
2019-04-07T11:18:36.395Z,34.15
2019-04-07T11:21:23.939Z,33.49
2019-04-07T11:24:22.080Z,32.13
2019-04-07T11:27:09.303Z,33.32
2019-04-07T11:30:03.887Z,32.89
2019-04-07T11:32:44.597Z,33.85
2019-04-07T11:35:22.258Z,32.76
2019-04-07T11:38:19.828Z,33.34
2019-04-07T11:41:06.709Z,30.71
2019-04-07T11:44:00.857Z,33.58
2019-04-07T11:46:51.986Z,32.15
2019-04-07T11:49:27.597Z,31.50
2019-04-07T11:52:02.309Z,31.10
2019-04-07T11:55:02.640Z,31.52
2019-04-07T11:57:55.086Z,30.91
2019-04-07T12:00:51.426Z,30.33
2019-04-07T12:03:28.907Z,30.78
2019-04-07T12:06:25.520Z,31.80
2019-04-07T12:09:13.083Z,30.60
2019-04-07T12:12:00.179Z,29.86
2019-04-07T12:14:45.528Z,32.07
2019-04-07T12:17:25.918Z,33.65
2019-04-07T12:20:16.921Z,34.53
2019-04-07T12:23:25.427Z,33.14
2019-04-07T12:26:19.028Z,33.58
2019-04-07T12:29:07.976Z,31.34
2019-04-07T12:32:05.663Z,32.45
2019-04-07T12:34:46.608Z,32.71
2019-04-07T12:37:44.589Z,30.77
2019-04-07T12:40:39.978Z,31.38
2019-04-07T12:43:21.742Z,32.63
2019-04-07T12:45:56.911Z,33.10
2019-04-07T12:48:47.957Z,32.17
2019-04-07T12:51:52.454Z,31.52
2019-04-07T12:54:27.838Z,31.86
2019-04-07T12:57:25.253Z,32.49
2019-04-07T13:00:23.926Z,32.32
2019-04-07T13:03:08.643Z,29.56
2019-04-07T13:06:06.363Z,28.25
2019-04-07T13:08:58.477Z,29.28
2019-04-07T13:11:49.743Z,30.86
2019-04-07T13:14:40.011Z,32.73
2019-04-07T13:17:28.088Z,33.18
2019-04-07T13:20:07.351Z,29.79
2019-04-07T13:23:13.814Z,27.98
2019-04-07T13:26:04.553Z,25.96
2019-04-07T13:28:45.998Z,28.78
2019-04-07T13:31:23.349Z,31.60
2019-04-07T13:34:12.683Z,31.29
2019-04-07T13:36:53.955Z,32.88
2019-04-07T13:39:47.056Z,31.36
2019-04-07T13:42:33.994Z,30.18
2019-04-07T13:45:31.288Z,31.37
2019-04-07T13:48:20.017Z,31.51
2019-04-07T13:51:07.563Z,31.76
2019-04-07T13:53:57.742Z,31.51
2019-04-07T13:56:48.140Z,31.39
2019-04-07T13:59:33.808Z,31.66
2019-04-07T14:02:25.040Z,31.67
2019-04-07T14:05:11.155Z,30.25
2019-04-07T14:07:54.474Z,31.09
2019-04-07T14:10:42.028Z,31.96
2019-04-07T14:13:33.812Z,29.85
2019-04-07T14:16:26.918Z,29.10
2019-04-07T14:19:06.628Z,30.89
2019-04-07T14:22:07.024Z,29.88
2019-04-07T14:24:53.795Z,30.66
2019-04-07T14:27:40.299Z,29.92
2019-04-07T14:30:29.156Z,28.87
2019-04-07T14:33:28.184Z,29.24
2019-04-07T14:36:28.385Z,29.66
2019-04-07T14:39:08.510Z,29.22
2019-04-07T14:41:48.714Z,28.90
2019-04-07T14:44:41.583Z,28.26
2019-04-07T14:47:33.510Z,27.53
2019-04-07T14:50:14.556Z,26.37
2019-04-07T14:53:10.988Z,26.62
2019-04-07T14:56:07.571Z,25.79
2019-04-07T14:58:48.359Z,26.47
2019-04-07T15:01:34.818Z,26.15
2019-04-07T15:04:06.427Z,27.20
2019-04-07T15:06:36.633Z,25.94
2019-04-07T15:09:16.402Z,25.36
2019-04-07T15:11:54.883Z,25.60
2019-04-07T15:14:25.343Z,25.63
2019-04-07T15:16:55.693Z,25.27
2019-04-07T15:19:25.373Z,24.72
2019-04-07T15:21:55.611Z,24.52
2019-04-07T15:24:26.094Z,24.48
2019-04-07T15:26:57.730Z,24.62
2019-04-07T15:29:28.896Z,24.55
2019-04-07T15:31:59.845Z,23.79
2019-04-07T15:34:30.731Z,24.42
2019-04-07T15:37:10.350Z,24.58
2019-04-07T15:39:41.619Z,24.06
2019-04-07T15:42:15.301Z,22.73
2019-04-07T15:44:43.937Z,21.71
2019-04-07T15:47:16.885Z,21.87
2019-04-07T15:49:48.459Z,22.91
2019-04-07T15:52:37.009Z,22.62
2019-04-07T15:55:06.760Z,23.39
2019-04-07T15:57:37.193Z,22.17
2019-04-07T16:00:07.896Z,21.18
2019-04-07T16:02:40.872Z,22.18
2019-04-07T16:05:10.483Z,21.84
2019-04-07T16:07:40.696Z,21.02
2019-04-07T16:10:10.234Z,20.67
2019-04-07T16:12:47.299Z,20.25
2019-04-07T16:15:15.834Z,20.27
2019-04-07T16:17:43.845Z,20.25
2019-04-07T16:20:23.261Z,20.07
2019-04-07T16:22:47.681Z,20.16
2019-04-07T16:25:17.443Z,20.18
2019-04-07T16:27:47.623Z,20.13
2019-04-07T16:30:19.153Z,20.04
2019-04-07T16:32:48.695Z,19.89
2019-04-07T16:35:18.396Z,19.76
2019-04-07T16:37:47.939Z,19.62
2019-04-07T16:40:18.468Z,19.49
2019-04-07T16:43:01.915Z,19.35
2019-04-07T16:45:19.250Z,19.26
2019-04-07T16:47:48.613Z,19.07
2019-04-07T16:50:20.285Z,19.07
2019-04-07T16:52:49.700Z,18.99
2019-04-07T16:55:34.980Z,18.87
2019-04-07T16:58:04.790Z,18.69
2019-04-07T17:00:34.508Z,18.65
2019-04-07T17:03:05.507Z,18.51
2019-04-07T17:05:36.208Z,18.29
2019-04-07T17:08:05.988Z,18.06
2019-04-07T17:10:35.485Z,18.03
2019-04-07T17:13:15.301Z,17.92
2019-04-07T17:15:39.490Z,17.84
2019-04-07T17:18:10.470Z,17.66
2019-04-07T17:20:41.166Z,17.49
2019-04-07T17:23:11.157Z,17.25
2019-04-07T17:25:41.722Z,17.19
2019-04-07T17:28:12.895Z,17.15
2019-04-07T17:30:42.287Z,16.91
2019-04-07T17:33:12.351Z,16.78
2019-04-07T17:35:43.605Z,16.71
2019-04-07T17:38:13.887Z,16.51
2019-04-07T17:40:49.216Z,16.34
2019-04-07T17:43:40.596Z,16.24
2019-04-07T17:46:49.134Z,16.05
2019-04-07T17:49:30.898Z,15.96
2019-04-07T17:52:22.062Z,16.02
2019-04-07T17:55:16.376Z,16.13
2019-04-07T17:58:08.900Z,16.01
2019-04-07T18:00:51.778Z,15.80
2019-04-07T18:03:32.925Z,15.80
2019-04-07T18:06:16.921Z,15.67
2019-04-07T18:09:11.711Z,15.74
2019-04-07T18:12:09.267Z,15.69
2019-04-07T18:14:56.962Z,15.55
2019-04-07T18:17:46.131Z,15.33
2019-04-07T18:20:31.577Z,15.33
2019-04-07T18:23:24.743Z,15.22
2019-04-07T18:26:06.218Z,15.10
2019-04-07T18:28:41.242Z,14.95
2019-04-07T18:31:40.246Z,14.65
2019-04-07T18:34:33.345Z,14.65
2019-04-07T18:37:24.761Z,14.65
2019-04-07T18:40:13.287Z,14.64
2019-04-07T18:42:55.663Z,14.84
2019-04-07T18:45:48.343Z,14.75
2019-04-07T18:48:49.428Z,14.45
2019-04-07T18:51:37.522Z,14.52
2019-04-07T18:54:24.883Z,14.48
2019-04-07T18:57:04.045Z,14.49
2019-04-07T18:59:58.674Z,14.49
2019-04-07T19:02:55.770Z,14.49
2019-04-07T19:05:44.659Z,14.35
2019-04-07T19:08:46.300Z,14.25
2019-04-07T19:11:28.551Z,13.97
2019-04-07T19:14:31.566Z,13.61
2019-04-07T19:17:04.979Z,13.45
2019-04-07T19:19:53.547Z,13.36
2019-04-07T19:22:40.427Z,13.36
2019-04-07T19:25:42.702Z,13.14
2019-04-07T19:28:18.939Z,12.91
2019-04-07T19:31:06.579Z,12.67
2019-04-07T19:33:59.824Z,12.45
2019-04-07T19:36:37.980Z,12.47
2019-04-07T19:39:48.920Z,12.38
2019-04-07T19:42:27.410Z,12.45
2019-04-07T19:45:07.292Z,12.51
2019-04-07T19:47:54.925Z,12.41
2019-04-07T19:50:46.995Z,12.44
2019-04-07T19:53:34.644Z,12.44
2019-04-07T19:56:39.812Z,12.36
2019-04-07T19:59:28.910Z,12.50
2019-04-07T20:02:30.530Z,12.58
2019-04-07T20:05:32.213Z,12.38
2019-04-07T20:08:21.598Z,12.37
2019-04-07T20:11:09.741Z,12.48
2019-04-07T20:13:56.357Z,12.52
2019-04-07T20:16:47.512Z,12.67
2019-04-07T20:19:38.585Z,12.67
2019-04-07T20:22:23.071Z,12.76
2019-04-07T20:25:14.568Z,12.77
2019-04-07T20:27:56.120Z,12.81
2019-04-07T20:30:33.815Z,12.62
2019-04-07T20:33:34.487Z,12.70
2019-04-07T20:36:24.919Z,12.66
2019-04-07T20:39:17.606Z,12.74
2019-04-07T20:42:05.993Z,12.66
2019-04-07T20:45:02.746Z,12.60
2019-04-07T20:48:00.271Z,12.57
2019-04-07T20:50:58.346Z,12.59
2019-04-07T20:53:45.546Z,12.57
2019-04-07T20:56:41.935Z,12.69
2019-04-07T20:59:30.757Z,12.65
2019-04-07T21:02:23.292Z,12.63
2019-04-07T21:05:28.295Z,12.62
2019-04-07T21:08:25.940Z,12.67
2019-04-07T21:11:20.464Z,12.56
2019-04-07T21:14:21.028Z,12.57
2019-04-07T21:17:12.111Z,12.61
2019-04-07T21:20:05.389Z,12.49
2019-04-07T21:22:44.028Z,12.34
2019-04-07T21:25:26.473Z,12.37
2019-04-07T21:28:07.729Z,12.39
2019-04-07T21:30:59.220Z,12.46
2019-04-07T21:33:59.577Z,12.58
2019-04-07T21:36:48.434Z,12.57
2019-04-07T21:39:25.907Z,12.50
2019-04-07T21:45:36.881Z,12.21
2019-04-07T21:48:13.824Z,12.34
2019-04-07T21:51:10.727Z,12.21
2019-04-07T21:54:04.064Z,12.19
2019-04-07T21:56:56.026Z,12.21
2019-04-07T21:59:33.841Z,12.17
2019-04-07T22:02:43.704Z,12.23
2019-04-07T22:05:33.562Z,12.20
2019-04-07T22:08:14.636Z,12.15
2019-04-07T22:10:41.598Z,12.14
2019-04-07T22:13:12.119Z,12.07
2019-04-07T22:15:48.303Z,12.03
2019-04-07T22:18:13.137Z,12.06
2019-04-07T22:20:43.248Z,12.02
2019-04-07T22:23:12.840Z,12.07
2019-04-07T22:25:53.948Z,12.28
2019-04-07T22:28:27.657Z,12.11
2019-04-07T22:30:56.001Z,11.98
2019-04-07T22:33:27.495Z,12.00
2019-04-07T22:35:57.498Z,12.07
2019-04-07T22:38:27.380Z,12.11
2019-04-07T22:40:58.391Z,12.07
2019-04-07T22:43:28.285Z,12.13
2019-04-07T22:46:06.245Z,12.08
2019-04-07T22:48:29.467Z,12.05
2019-04-07T22:50:59.121Z,11.98
2019-04-07T22:53:30.937Z,11.97
2019-04-07T22:55:59.576Z,11.99
2019-04-07T22:58:29.736Z,11.87
2019-04-07T23:00:59.521Z,11.76
2019-04-07T23:03:29.251Z,11.67
2019-04-07T23:05:58.829Z,11.67
2019-04-07T23:08:28.533Z,11.61
2019-04-07T23:10:58.079Z,11.68
2019-04-07T23:13:28.005Z,11.75
2019-04-07T23:16:09.977Z,11.71
2019-04-07T23:18:29.630Z,11.70
2019-04-07T23:20:59.850Z,11.68
2019-04-07T23:23:30.878Z,11.64
2019-04-07T23:26:00.576Z,11.68
2019-04-07T23:28:30.638Z,11.69
2019-04-07T23:31:00.293Z,11.66
2019-04-07T23:33:29.831Z,11.68
2019-04-07T23:35:59.732Z,11.67
2019-04-07T23:38:30.323Z,11.66
2019-04-07T23:40:59.862Z,11.57
2019-04-07T23:43:29.301Z,11.65
2019-04-07T23:45:58.749Z,11.74
2019-04-07T23:48:28.439Z,11.68
2019-04-07T23:50:58.256Z,11.73
2019-04-07T23:54:04.375Z,11.67
2019-04-07T23:56:33.933Z,11.60
2019-04-07T23:59:03.802Z,11.59
